createdAt,value
2024-05-09T00:00:48.136Z,9.60
2024-05-09T00:03:36.176Z,9.70
2024-05-09T00:06:05.231Z,9.10
2024-05-09T00:08:33.591Z,9.20
2024-05-09T00:11:02.258Z,9.60
2024-05-09T00:13:31.001Z,8.10
2024-05-09T00:15:59.434Z,10.30
2024-05-09T00:18:27.498Z,8.90
2024-05-09T00:20:55.745Z,7.80
2024-05-09T00:23:24.225Z,9.40
2024-05-09T00:25:52.717Z,8.10
2024-05-09T00:28:21.065Z,7.20
2024-05-09T00:30:50.309Z,8.00
2024-05-09T00:33:19.173Z,10.20
2024-05-09T00:35:47.275Z,8.50
2024-05-09T00:38:14.900Z,10.20
2024-05-09T00:40:43.821Z,8.80
2024-05-09T00:43:14.383Z,8.20
2024-05-09T00:45:44.476Z,8.80
2024-05-09T00:48:16.179Z,9.30
2024-05-09T00:50:46.925Z,9.00
2024-05-09T00:53:16.087Z,7.90
2024-05-09T00:55:44.971Z,13.20
2024-05-09T00:58:15.875Z,8.70
2024-05-09T01:00:44.353Z,8.90
2024-05-09T01:03:13.831Z,8.10
2024-05-09T01:05:44.346Z,8.50
2024-05-09T01:08:13.357Z,7.70
2024-05-09T01:10:44.266Z,9.50
2024-05-09T01:13:14.412Z,8.60
2024-05-09T01:15:44.834Z,8.50
2024-05-09T01:18:13.716Z,9.00
2024-05-09T01:20:44.664Z,8.90
2024-05-09T01:23:15.922Z,9.10
2024-05-09T01:25:46.538Z,9.50
2024-05-09T01:28:16.458Z,9.30
2024-05-09T01:30:45.157Z,8.50
2024-05-09T01:33:13.568Z,9.70
2024-05-09T01:35:42.990Z,12.20
2024-05-09T01:38:13.896Z,9.90
2024-05-09T01:40:43.112Z,9.50
2024-05-09T01:43:12.285Z,11.30
2024-05-09T01:45:41.301Z,9.70
2024-05-09T01:48:10.738Z,10.70
2024-05-09T01:50:42.512Z,11.20
2024-05-09T01:53:13.084Z,8.70
2024-05-09T01:55:42.291Z,9.40
2024-05-09T01:58:10.456Z,9.40
2024-05-09T02:00:42.218Z,8.90
2024-05-09T02:03:15.302Z,8.80
2024-05-09T02:05:47.166Z,9.60
2024-05-09T02:08:17.462Z,8.70
2024-05-09T02:10:47.948Z,9.10
2024-05-09T02:13:16.920Z,8.10
2024-05-09T02:15:45.235Z,9.90
2024-05-09T02:18:14.116Z,7.90
2024-05-09T02:20:43.293Z,9.70
2024-05-09T02:23:12.476Z,8.50
2024-05-09T02:25:41.585Z,8.50
2024-05-09T02:28:09.427Z,8.40
2024-05-09T02:30:41.813Z,8.90
2024-05-09T02:33:12.744Z,9.00
2024-05-09T02:35:44.299Z,10.00
2024-05-09T02:38:13.103Z,11.20
2024-05-09T02:40:41.662Z,11.10
2024-05-09T02:43:12.977Z,9.80
2024-05-09T02:45:42.132Z,8.00
2024-05-09T02:48:10.950Z,9.70
2024-05-09T02:50:42.211Z,8.60
2024-05-09T02:53:13.684Z,9.30
2024-05-09T02:55:42.938Z,9.60
2024-05-09T02:58:12.029Z,8.90
2024-05-09T03:00:42.318Z,9.30
2024-05-09T03:03:15.275Z,7.80
2024-05-09T03:05:46.797Z,10.80
2024-05-09T03:08:15.954Z,11.30
2024-05-09T03:10:44.291Z,9.00
2024-05-09T03:13:14.794Z,9.10
2024-05-09T03:15:45.092Z,9.50
2024-05-09T03:18:15.481Z,9.60
2024-05-09T03:20:44.788Z,8.70
2024-05-09T03:23:13.510Z,9.20
2024-05-09T03:25:42.981Z,9.00
2024-05-09T03:28:11.427Z,11.70
2024-05-09T03:30:42.525Z,8.80
2024-05-09T03:33:17.996Z,10.10
2024-05-09T03:35:48.142Z,8.80
2024-05-09T03:38:16.910Z,10.70
2024-05-09T03:40:46.254Z,8.90
2024-05-09T03:43:14.475Z,9.10
2024-05-09T03:45:43.062Z,10.70
2024-05-09T03:48:11.575Z,10.00
2024-05-09T03:50:40.206Z,9.80
2024-05-09T03:53:12.813Z,9.50
2024-05-09T03:55:41.498Z,10.30
2024-05-09T03:58:09.885Z,9.70
2024-05-09T04:00:40.007Z,10.40
2024-05-09T04:03:11.138Z,13.10
2024-05-09T04:05:42.631Z,12.60
2024-05-09T04:08:12.080Z,12.70
2024-05-09T04:10:40.804Z,9.30
2024-05-09T04:13:09.691Z,9.20
2024-05-09T04:15:37.680Z,12.60
2024-05-09T04:18:06.336Z,8.60
2024-05-09T04:20:42.292Z,9.10
2024-05-09T04:23:11.243Z,8.40
2024-05-09T04:25:44.206Z,13.20
2024-05-09T04:28:13.047Z,11.70
2024-05-09T04:30:42.009Z,10.70
2024-05-09T04:33:12.559Z,12.10
2024-05-09T04:35:43.086Z,15.50
2024-05-09T04:38:13.773Z,12.90
2024-05-09T04:40:42.814Z,9.00
2024-05-09T04:43:16.313Z,9.00
2024-05-09T04:45:45.205Z,11.30
2024-05-09T04:48:13.286Z,11.60
2024-05-09T04:50:41.858Z,13.30
2024-05-09T04:53:15.078Z,9.60
2024-05-09T04:55:45.178Z,17.20
2024-05-09T04:58:13.442Z,16.10
2024-05-09T05:00:41.806Z,10.10
2024-05-09T05:03:13.788Z,17.10
2024-05-09T05:05:46.185Z,9.90
2024-05-09T05:08:18.788Z,9.70
2024-05-09T05:10:48.687Z,17.70
2024-05-09T05:13:22.729Z,12.20
2024-05-09T05:15:55.248Z,9.50
2024-05-09T05:18:23.255Z,9.10
2024-05-09T05:20:51.708Z,11.00
2024-05-09T05:23:20.508Z,11.80
2024-05-09T05:25:50.103Z,10.60
2024-05-09T05:28:18.650Z,9.90
2024-05-09T05:30:48.486Z,9.10
2024-05-09T05:33:19.134Z,10.50
2024-05-09T05:35:48.034Z,9.30
2024-05-09T05:38:16.012Z,9.90
2024-05-09T05:40:44.072Z,8.90
2024-05-09T05:43:18.686Z,9.70
2024-05-09T05:45:46.718Z,9.60
2024-05-09T05:48:18.202Z,8.10
2024-05-09T05:50:47.880Z,11.60
2024-05-09T05:53:16.280Z,12.30
2024-05-09T05:55:44.556Z,10.30
2024-05-09T05:58:13.542Z,8.80
2024-05-09T06:00:42.301Z,9.30
2024-05-09T06:03:14.446Z,8.20
2024-05-09T06:05:48.705Z,9.60
2024-05-09T06:08:16.858Z,9.10
2024-05-09T06:10:46.041Z,8.80
2024-05-09T06:13:15.883Z,8.30
2024-05-09T06:15:44.110Z,10.20
2024-05-09T06:18:13.862Z,8.30
2024-05-09T06:20:43.591Z,13.20
2024-05-09T06:23:13.903Z,9.90
2024-05-09T06:25:42.405Z,9.90
2024-05-09T06:28:11.101Z,11.30
2024-05-09T06:30:42.541Z,8.20
2024-05-09T06:33:14.424Z,9.00
2024-05-09T06:35:44.901Z,8.90
2024-05-09T06:38:13.385Z,8.50
2024-05-09T06:40:43.536Z,8.80
2024-05-09T06:43:18.059Z,9.50
2024-05-09T06:45:49.304Z,9.90
2024-05-09T06:48:18.382Z,9.00
2024-05-09T06:50:46.680Z,8.60
2024-05-09T06:53:15.787Z,8.00
2024-05-09T06:55:44.323Z,9.60
2024-05-09T06:58:12.386Z,8.20
2024-05-09T07:00:42.352Z,10.90
2024-05-09T07:03:12.288Z,7.80
2024-05-09T07:05:42.122Z,10.50
2024-05-09T07:08:12.334Z,9.60
2024-05-09T07:10:40.422Z,8.10
2024-05-09T07:13:12.643Z,7.50
2024-05-09T07:15:41.168Z,6.60
2024-05-09T07:18:12.966Z,6.40
2024-05-09T07:20:41.455Z,6.80
2024-05-09T07:23:10.707Z,8.10
2024-05-09T07:25:39.771Z,5.30
2024-05-09T07:28:18.047Z,8.40
2024-05-09T07:30:45.965Z,8.30
2024-05-09T07:33:17.987Z,6.30
2024-05-09T07:35:46.547Z,5.80
2024-05-09T07:38:14.718Z,5.70
2024-05-09T07:40:43.149Z,6.30
2024-05-09T07:43:14.470Z,6.70
2024-05-09T07:45:51.358Z,5.80
2024-05-09T07:52:37.885Z,6.30
2024-05-09T07:53:49.220Z,5.50
2024-05-09T07:56:22.729Z,5.90
2024-05-09T07:58:54.030Z,5.80
2024-05-09T08:01:24.598Z,8.20
2024-05-09T08:03:52.848Z,8.10
2024-05-09T08:06:21.237Z,6.60
2024-05-09T08:08:49.032Z,6.70
2024-05-09T08:11:17.078Z,7.50
2024-05-09T08:13:45.959Z,20.00
2024-05-09T08:16:14.573Z,7.10
2024-05-09T08:18:42.728Z,5.60
2024-05-09T08:21:11.086Z,9.00
2024-05-09T08:23:39.065Z,4.40
2024-05-09T08:26:07.129Z,6.70
2024-05-09T08:28:35.141Z,5.70
2024-05-09T08:31:06.622Z,5.10
2024-05-09T08:33:35.405Z,6.50
2024-05-09T08:36:03.692Z,7.10
2024-05-09T08:38:31.493Z,6.50
2024-05-09T08:41:00.900Z,5.60
2024-05-09T08:43:29.352Z,6.10
2024-05-09T08:45:58.669Z,6.20
2024-05-09T08:48:28.324Z,4.90
2024-05-09T08:50:59.336Z,5.80
2024-05-09T08:53:27.532Z,8.30
2024-05-09T08:55:57.458Z,8.60
2024-05-09T08:58:26.128Z,5.50
2024-05-09T09:00:55.094Z,6.00
2024-05-09T09:03:27.843Z,4.90
2024-05-09T09:06:01.914Z,6.40
2024-05-09T09:08:29.935Z,6.40
2024-05-09T09:10:58.528Z,6.70
2024-05-09T09:13:26.717Z,5.20
2024-05-09T09:15:58.166Z,6.10
2024-05-09T09:18:27.210Z,5.80
2024-05-09T09:20:55.713Z,7.20
2024-05-09T09:23:23.430Z,5.90
2024-05-09T09:25:51.862Z,7.10
2024-05-09T09:28:22.785Z,7.20
2024-05-09T09:30:51.553Z,8.50
2024-05-09T09:33:19.663Z,7.50
2024-05-09T09:35:48.489Z,6.20
2024-05-09T09:38:18.381Z,7.00
2024-05-09T09:40:49.750Z,6.00
2024-05-09T09:43:22.516Z,5.00
2024-05-09T09:45:52.860Z,6.00
2024-05-09T09:48:22.546Z,5.80
2024-05-09T09:50:51.724Z,6.00
2024-05-09T09:53:19.858Z,10.00
2024-05-09T09:55:50.213Z,5.50
2024-05-09T09:58:18.819Z,7.70
2024-05-09T10:00:47.803Z,5.60
2024-05-09T10:03:16.174Z,7.50
2024-05-09T10:05:46.992Z,7.70
2024-05-09T10:08:16.573Z,3.60
2024-05-09T10:10:47.584Z,5.30
2024-05-09T10:13:16.846Z,4.40
2024-05-09T10:15:54.128Z,4.90
2024-05-09T10:18:30.210Z,5.00
2024-05-09T10:21:00.743Z,4.80
2024-05-09T10:23:29.740Z,4.40
2024-05-09T10:26:02.209Z,5.60
2024-05-09T10:28:33.743Z,6.40
2024-05-09T10:31:04.073Z,4.70
2024-05-09T10:33:38.866Z,6.00
2024-05-09T10:36:20.280Z,5.50
2024-05-09T10:38:51.792Z,6.30
2024-05-09T10:41:20.626Z,6.80
2024-05-09T10:43:50.287Z,5.30
2024-05-09T10:46:21.224Z,5.30
2024-05-09T10:48:50.983Z,7.30
2024-05-09T10:51:19.973Z,8.00
2024-05-09T10:53:48.604Z,6.40
2024-05-09T10:56:17.156Z,5.10
2024-05-09T10:58:45.822Z,5.20
2024-05-09T11:01:14.074Z,7.60
2024-05-09T11:03:46.981Z,8.20
2024-05-09T11:06:15.592Z,4.90
2024-05-09T11:08:43.960Z,6.30
2024-05-09T11:11:12.108Z,6.00
2024-05-09T11:13:40.705Z,6.30
2024-05-09T11:16:21.567Z,6.70
2024-05-09T11:18:56.587Z,7.40
2024-05-09T11:21:24.822Z,6.70
2024-05-09T11:23:53.246Z,5.50
2024-05-09T11:26:25.493Z,6.50
2024-05-09T11:28:53.790Z,7.00
2024-05-09T11:31:22.144Z,6.80
2024-05-09T11:33:53.781Z,9.40
2024-05-09T11:36:21.599Z,8.10
2024-05-09T11:38:49.571Z,6.30
2024-05-09T11:41:21.331Z,6.30
2024-05-09T11:43:49.311Z,7.60
2024-05-09T11:46:17.455Z,6.10
2024-05-09T11:48:45.702Z,7.80
2024-05-09T11:51:13.645Z,7.20
2024-05-09T11:53:41.803Z,8.40
2024-05-09T11:56:12.048Z,7.10
2024-05-09T11:58:41.693Z,5.10
2024-05-09T12:01:09.759Z,7.10
2024-05-09T12:03:38.595Z,5.60
2024-05-09T12:06:06.801Z,4.90
2024-05-09T12:08:36.412Z,6.60
2024-05-09T12:11:05.072Z,5.80
2024-05-09T12:13:33.964Z,7.40
2024-05-09T12:16:01.956Z,7.70
2024-05-09T12:18:30.457Z,6.40
2024-05-09T12:20:58.641Z,5.90
2024-05-09T12:23:26.445Z,6.90
2024-05-09T12:25:54.479Z,6.70
2024-05-09T12:28:22.333Z,6.10
2024-05-09T12:30:50.567Z,6.20
2024-05-09T12:33:20.866Z,6.50
2024-05-09T12:35:50.882Z,5.30
2024-05-09T12:38:19.135Z,9.30
2024-05-09T12:40:47.135Z,9.30
2024-05-09T12:43:15.239Z,6.60
2024-05-09T12:45:43.733Z,7.20
2024-05-09T12:48:14.810Z,6.50
2024-05-09T12:50:43.712Z,6.60
2024-05-09T12:53:11.849Z,5.10
2024-05-09T12:55:48.419Z,3.90
2024-05-09T12:58:22.832Z,4.50
2024-05-09T13:00:51.963Z,5.10
2024-05-09T13:03:20.672Z,8.20
2024-05-09T13:05:51.604Z,7.20
2024-05-09T13:08:20.262Z,5.10
2024-05-09T13:10:48.539Z,5.50
2024-05-09T13:13:17.165Z,7.20
2024-05-09T13:15:45.711Z,5.80
2024-05-09T13:18:15.562Z,5.70
2024-05-09T13:20:44.798Z,5.30
2024-05-09T13:23:12.803Z,5.60
2024-05-09T13:25:41.076Z,5.00
2024-05-09T13:28:09.614Z,8.40
2024-05-09T13:30:40.917Z,3.80
2024-05-09T13:33:11.926Z,6.80
2024-05-09T13:35:46.912Z,4.30
2024-05-09T13:38:19.449Z,7.70
2024-05-09T13:40:48.558Z,5.10
2024-05-09T13:43:17.629Z,6.30
2024-05-09T13:45:46.821Z,5.70
2024-05-09T13:48:15.175Z,5.60
2024-05-09T13:50:43.189Z,4.40
2024-05-09T13:53:12.246Z,7.50
2024-05-09T13:55:40.960Z,5.30
2024-05-09T13:58:09.742Z,6.40
2024-05-09T14:00:46.056Z,6.80
2024-05-09T14:03:18.670Z,5.50
2024-05-09T14:05:49.760Z,4.60
2024-05-09T14:08:20.089Z,6.00
2024-05-09T14:10:49.001Z,7.60
2024-05-09T14:13:18.107Z,4.20
2024-05-09T14:15:48.892Z,7.30
2024-05-09T14:18:18.379Z,5.10
2024-05-09T14:20:46.850Z,6.00
2024-05-09T14:23:17.678Z,6.20
2024-05-09T14:25:50.084Z,7.30
2024-05-09T14:28:21.877Z,4.30
2024-05-09T14:30:50.476Z,4.10
2024-05-09T14:33:25.579Z,5.40
2024-05-09T14:35:54.082Z,5.10
2024-05-09T14:38:23.103Z,7.90
2024-05-09T14:40:53.348Z,10.60
2024-05-09T14:43:21.555Z,7.50
2024-05-09T14:45:49.949Z,4.60
2024-05-09T14:48:20.083Z,5.70
2024-05-09T14:50:50.924Z,7.00
2024-05-09T14:53:19.367Z,6.20
2024-05-09T14:55:49.652Z,7.30
2024-05-09T14:58:18.036Z,7.20
2024-05-09T15:00:50.094Z,3.90
2024-05-09T15:03:21.119Z,5.40
2024-05-09T15:05:51.177Z,6.00
2024-05-09T15:08:20.219Z,4.20
2024-05-09T15:10:50.434Z,4.20
2024-05-09T15:13:20.042Z,4.60
2024-05-09T15:15:48.612Z,6.30
2024-05-09T15:18:17.494Z,6.00
2024-05-09T15:20:46.124Z,4.70
2024-05-09T15:23:14.721Z,5.50
2024-05-09T15:25:45.179Z,4.50
2024-05-09T15:28:13.487Z,5.10
2024-05-09T15:30:46.474Z,5.70
2024-05-09T15:33:16.548Z,5.20
2024-05-09T15:35:46.344Z,4.50
2024-05-09T15:38:15.232Z,5.10
2024-05-09T15:40:43.650Z,4.80
2024-05-09T15:43:12.924Z,5.90
2024-05-09T15:45:44.609Z,4.20
2024-05-09T15:48:13.201Z,6.00
2024-05-09T15:50:42.541Z,6.00
2024-05-09T15:53:13.298Z,5.00
2024-05-09T15:55:42.568Z,4.20
2024-05-09T15:58:11.557Z,6.70
2024-05-09T16:00:43.471Z,5.90
2024-05-09T16:03:14.500Z,3.60
2024-05-09T16:05:45.557Z,5.50
2024-05-09T16:08:14.661Z,4.00
2024-05-09T16:10:45.820Z,4.00
2024-05-09T16:13:15.563Z,5.80
2024-05-09T16:15:43.871Z,4.90
2024-05-09T16:18:12.538Z,6.20
2024-05-09T16:20:42.459Z,6.40
2024-05-09T16:23:12.758Z,5.50
2024-05-09T16:25:46.037Z,5.10
2024-05-09T16:28:14.815Z,5.20
2024-05-09T16:30:46.056Z,5.20
2024-05-09T16:33:14.935Z,4.60
2024-05-09T16:35:44.387Z,8.50
2024-05-09T16:38:13.604Z,6.10
2024-05-09T16:40:42.209Z,5.20
2024-05-09T16:43:13.200Z,5.60
2024-05-09T16:45:44.396Z,10.30
2024-05-09T16:48:13.946Z,5.80
2024-05-09T16:50:42.930Z,5.60
2024-05-09T16:53:13.800Z,5.50
2024-05-09T16:55:41.726Z,7.20
2024-05-09T16:58:12.166Z,7.00
2024-05-09T17:00:44.247Z,3.80
2024-05-09T17:03:18.469Z,4.70
2024-05-09T17:05:48.607Z,9.40
2024-05-09T17:08:20.416Z,6.20
2024-05-09T17:10:49.650Z,5.10
2024-05-09T17:13:19.968Z,6.50
2024-05-09T17:15:50.229Z,6.70
2024-05-09T17:18:18.942Z,5.70
2024-05-09T17:20:47.222Z,5.50
2024-05-09T17:23:15.895Z,6.70
2024-05-09T17:25:43.962Z,5.70
2024-05-09T17:28:12.799Z,5.60
2024-05-09T17:30:42.800Z,7.00
2024-05-09T17:33:12.822Z,6.10
2024-05-09T17:35:41.438Z,5.70
2024-05-09T17:38:09.684Z,4.70
2024-05-09T17:40:38.992Z,6.10
2024-05-09T17:43:09.753Z,7.80
2024-05-09T17:45:42.543Z,7.10
2024-05-09T17:48:12.308Z,6.70
2024-05-09T17:50:42.420Z,5.60
2024-05-09T17:53:10.840Z,4.80
2024-05-09T17:55:40.007Z,4.80
2024-05-09T17:58:08.620Z,5.10
2024-05-09T18:00:40.784Z,6.40
2024-05-09T18:03:12.465Z,5.70
2024-05-09T18:05:44.438Z,6.10
2024-05-09T18:08:13.775Z,4.90
2024-05-09T18:10:43.568Z,5.00
2024-05-09T18:13:12.299Z,8.00
2024-05-09T18:15:41.181Z,4.20
2024-05-09T18:18:10.707Z,4.70
2024-05-09T18:20:45.454Z,6.10
2024-05-09T18:23:16.250Z,6.60
2024-05-09T18:25:47.256Z,9.30
2024-05-09T18:28:21.304Z,8.80
2024-05-09T18:30:50.619Z,12.40
2024-05-09T18:33:18.752Z,7.90
2024-05-09T18:35:47.307Z,5.80
2024-05-09T18:38:16.055Z,9.20
2024-05-09T18:40:47.167Z,8.30
2024-05-09T18:43:17.426Z,10.40
2024-05-09T18:45:46.211Z,12.70
2024-05-09T18:48:17.071Z,7.00
2024-05-09T18:50:45.730Z,7.90
2024-05-09T18:53:14.952Z,7.30
2024-05-09T18:55:43.228Z,8.00
2024-05-09T18:58:11.590Z,6.90
2024-05-09T19:00:42.615Z,9.10
2024-05-09T19:03:14.651Z,12.50
2024-05-09T19:05:45.541Z,7.50
2024-05-09T19:08:15.425Z,9.30
2024-05-09T19:10:45.774Z,16.20
2024-05-09T19:13:15.057Z,12.70
2024-05-09T19:15:45.795Z,11.20
2024-05-09T19:18:15.178Z,11.80
2024-05-09T19:20:44.308Z,12.00
2024-05-09T19:23:14.379Z,9.00
2024-05-09T19:25:42.724Z,7.70
2024-05-09T19:28:11.013Z,8.20
2024-05-09T19:30:48.159Z,9.20
2024-05-09T19:33:16.191Z,10.40
2024-05-09T19:35:45.235Z,7.30
2024-05-09T19:38:13.521Z,8.50
2024-05-09T19:40:42.053Z,7.10
2024-05-09T19:43:11.603Z,6.80
2024-05-09T19:45:40.062Z,10.10
2024-05-09T19:48:09.171Z,9.00
2024-05-09T19:50:43.469Z,10.70
2024-05-09T19:53:14.801Z,18.20
2024-05-09T19:55:43.661Z,12.00
2024-05-09T19:58:13.626Z,11.70
2024-05-09T20:00:45.728Z,9.50
2024-05-09T20:03:16.010Z,8.50
2024-05-09T20:05:46.654Z,7.10
2024-05-09T20:08:16.524Z,6.30
2024-05-09T20:10:44.608Z,10.30
2024-05-09T20:13:13.882Z,10.10
2024-05-09T20:15:43.900Z,8.40
2024-05-09T20:18:12.560Z,8.30
2024-05-09T20:20:43.052Z,11.20
2024-05-09T20:23:13.081Z,7.70
2024-05-09T20:25:41.906Z,6.90
2024-05-09T20:28:10.672Z,8.40
2024-05-09T20:30:39.395Z,9.60
2024-05-09T20:33:10.728Z,9.50
2024-05-09T20:35:38.769Z,6.20
2024-05-09T20:38:07.265Z,8.60
2024-05-09T20:40:38.713Z,9.30
2024-05-09T20:43:09.919Z,8.30
2024-05-09T20:45:39.235Z,7.50
2024-05-09T20:48:08.667Z,7.80
2024-05-09T20:50:40.881Z,9.70
2024-05-09T20:53:12.366Z,8.60
2024-05-09T20:55:43.489Z,7.80
2024-05-09T20:58:12.003Z,8.40
2024-05-09T21:00:45.246Z,8.60
2024-05-09T21:03:16.864Z,12.00
2024-05-09T21:05:48.582Z,8.80
2024-05-09T21:08:17.185Z,7.30
2024-05-09T21:10:45.546Z,7.90
2024-05-09T21:13:16.357Z,11.00
2024-05-09T21:15:44.836Z,15.30
2024-05-09T21:18:12.942Z,14.60
2024-05-09T21:20:41.831Z,18.60
2024-05-09T21:23:09.830Z,17.00
2024-05-09T21:25:37.967Z,15.50
2024-05-09T21:28:06.225Z,11.10
2024-05-09T21:30:41.376Z,10.20
2024-05-09T21:33:13.214Z,9.80
2024-05-09T21:35:43.706Z,9.50
2024-05-09T21:38:13.996Z,12.50
2024-05-09T21:40:43.547Z,9.50
2024-05-09T21:43:12.092Z,8.30
2024-05-09T21:45:40.451Z,8.30
2024-05-09T21:48:09.236Z,10.30
2024-05-09T21:50:41.034Z,9.90
2024-05-09T21:53:12.534Z,7.80
2024-05-09T21:55:42.670Z,10.60
2024-05-09T21:58:12.245Z,9.70
2024-05-09T22:00:42.925Z,8.00
2024-05-09T22:03:28.781Z,11.20
2024-05-09T22:05:57.002Z,10.30
2024-05-09T22:08:24.742Z,12.10
2024-05-09T22:10:53.256Z,12.00
2024-05-09T22:13:21.108Z,11.10
2024-05-09T22:15:49.211Z,12.60
2024-05-09T22:18:17.300Z,10.40
2024-05-09T22:20:46.499Z,11.40
2024-05-09T22:23:18.726Z,12.00
2024-05-09T22:25:46.899Z,13.10
2024-05-09T22:28:15.816Z,14.80
2024-05-09T22:30:46.072Z,15.90
2024-05-09T22:33:15.493Z,10.70
2024-05-09T22:35:43.678Z,12.30
2024-05-09T22:38:12.694Z,13.30
2024-05-09T22:40:47.361Z,14.60
2024-05-09T22:43:23.061Z,14.00
2024-05-09T22:45:54.904Z,9.60
2024-05-09T22:48:24.701Z,12.40
2024-05-09T22:50:53.707Z,13.30
2024-05-09T22:53:25.023Z,11.30
2024-05-09T22:55:53.525Z,11.00
2024-05-09T22:58:23.009Z,9.40
2024-05-09T23:00:51.895Z,10.00
2024-05-09T23:03:21.817Z,9.20
2024-05-09T23:05:51.335Z,9.50
2024-05-09T23:08:19.499Z,10.30
2024-05-09T23:10:47.807Z,8.00
2024-05-09T23:13:16.250Z,8.80
2024-05-09T23:15:44.585Z,9.40
2024-05-09T23:18:12.723Z,9.80
2024-05-09T23:20:41.419Z,11.70
2024-05-09T23:23:11.121Z,9.30
2024-05-09T23:25:41.919Z,12.80
2024-05-09T23:28:10.781Z,7.20
2024-05-09T23:30:41.130Z,10.40
2024-05-09T23:33:11.577Z,6.90
2024-05-09T23:35:44.507Z,8.10
2024-05-09T23:38:13.431Z,7.60
2024-05-09T23:40:42.908Z,8.20
2024-05-09T23:43:14.453Z,8.50
2024-05-09T23:45:43.097Z,9.90
2024-05-09T23:48:11.876Z,7.90
2024-05-09T23:50:41.011Z,11.90
2024-05-09T23:53:10.768Z,7.90
2024-05-09T23:55:39.870Z,9.20
2024-05-09T23:58:11.855Z,10.00
